sensor_id;sensor_type;location;lat;lon;timestamp;P1;durP1;ratioP1;P2;durP2;ratioP2
10132;SDS011;5106;50.926;7.080;2023-12-04T00:00:07;12.33;;;8.10;;
10132;SDS011;5106;50.926;7.080;2023-12-04T00:02:33;11.30;;;8.40;;
10132;SDS011;5106;50.926;7.080;2023-12-04T00:04:59;10.47;;;7.17;;
10132;SDS011;5106;50.926;7.080;2023-12-04T00:07:25;11.80;;;7.90;;
10132;SDS011;5106;50.926;7.080;2023-12-04T00:09:50;11.00;;;8.17;;
10132;SDS011;5106;50.926;7.080;2023-12-04T00:12:16;12.13;;;7.93;;
10132;SDS011;5106;50.926;7.080;2023-12-04T00:14:41;11.60;;;8.17;;
10132;SDS011;5106;50.926;7.080;2023-12-04T00:17:07;11.37;;;7.73;;
10132;SDS011;5106;50.926;7.080;2023-12-04T00:19:33;12.57;;;7.37;;
10132;SDS011;5106;50.926;7.080;2023-12-04T00:21:59;13.37;;;8.27;;
10132;SDS011;5106;50.926;7.080;2023-12-04T00:24:25;9.83;;;6.87;;
10132;SDS011;5106;50.926;7.080;2023-12-04T00:26:50;9.43;;;7.27;;
10132;SDS011;5106;50.926;7.080;2023-12-04T00:29:16;11.53;;;7.87;;
10132;SDS011;5106;50.926;7.080;2023-12-04T00:31:41;11.07;;;7.53;;
10132;SDS011;5106;50.926;7.080;2023-12-04T00:34:07;11.60;;;8.07;;
10132;SDS011;5106;50.926;7.080;2023-12-04T00:36:32;11.53;;;7.70;;
10132;SDS011;5106;50.926;7.080;2023-12-04T00:38:58;11.63;;;7.83;;
10132;SDS011;5106;50.926;7.080;2023-12-04T00:41:24;11.70;;;8.20;;
10132;SDS011;5106;50.926;7.080;2023-12-04T00:43:49;11.03;;;7.70;;
10132;SDS011;5106;50.926;7.080;2023-12-04T00:46:15;9.73;;;7.03;;
10132;SDS011;5106;50.926;7.080;2023-12-04T00:48:41;11.07;;;7.87;;
10132;SDS011;5106;50.926;7.080;2023-12-04T00:51:06;10.87;;;7.90;;
10132;SDS011;5106;50.926;7.080;2023-12-04T00:53:32;12.67;;;7.80;;
10132;SDS011;5106;50.926;7.080;2023-12-04T00:55:57;9.30;;;6.67;;
10132;SDS011;5106;50.926;7.080;2023-12-04T00:58:23;10.20;;;7.20;;
10132;SDS011;5106;50.926;7.080;2023-12-04T01:00:49;10.80;;;7.57;;
10132;SDS011;5106;50.926;7.080;2023-12-04T01:03:16;10.80;;;7.47;;
10132;SDS011;5106;50.926;7.080;2023-12-04T01:05:42;9.67;;;7.00;;
10132;SDS011;5106;50.926;7.080;2023-12-04T01:08:08;13.17;;;7.20;;
10132;SDS011;5106;50.926;7.080;2023-12-04T01:10:33;9.20;;;7.13;;
10132;SDS011;5106;50.926;7.080;2023-12-04T01:12:59;10.93;;;8.03;;
10132;SDS011;5106;50.926;7.080;2023-12-04T01:15:24;10.13;;;7.50;;
10132;SDS011;5106;50.926;7.080;2023-12-04T01:17:50;9.67;;;7.03;;
10132;SDS011;5106;50.926;7.080;2023-12-04T01:20:15;9.97;;;7.40;;
10132;SDS011;5106;50.926;7.080;2023-12-04T01:22:41;8.83;;;6.40;;
10132;SDS011;5106;50.926;7.080;2023-12-04T01:25:07;9.80;;;7.00;;
10132;SDS011;5106;50.926;7.080;2023-12-04T01:27:33;9.87;;;6.37;;
10132;SDS011;5106;50.926;7.080;2023-12-04T01:30:01;9.83;;;7.40;;
10132;SDS011;5106;50.926;7.080;2023-12-04T01:32:27;10.80;;;7.30;;
10132;SDS011;5106;50.926;7.080;2023-12-04T01:34:52;10.17;;;7.10;;
10132;SDS011;5106;50.926;7.080;2023-12-04T01:37:18;9.40;;;6.50;;
10132;SDS011;5106;50.926;7.080;2023-12-04T01:39:43;8.57;;;6.43;;
10132;SDS011;5106;50.926;7.080;2023-12-04T01:42:09;11.57;;;6.83;;
10132;SDS011;5106;50.926;7.080;2023-12-04T01:44:35;11.10;;;7.00;;
10132;SDS011;5106;50.926;7.080;2023-12-04T01:47:02;9.23;;;7.00;;
10132;SDS011;5106;50.926;7.080;2023-12-04T01:49:28;9.57;;;6.73;;
10132;SDS011;5106;50.926;7.080;2023-12-04T01:51:54;9.03;;;6.80;;
10132;SDS011;5106;50.926;7.080;2023-12-04T01:54:21;9.43;;;6.83;;
10132;SDS011;5106;50.926;7.080;2023-12-04T01:56:47;9.30;;;6.90;;
10132;SDS011;5106;50.926;7.080;2023-12-04T01:59:13;8.57;;;6.17;;
10132;SDS011;5106;50.926;7.080;2023-12-04T02:01:39;8.60;;;6.50;;
10132;SDS011;5106;50.926;7.080;2023-12-04T02:04:05;8.63;;;7.00;;
10132;SDS011;5106;50.926;7.080;2023-12-04T02:06:31;10.40;;;7.03;;
10132;SDS011;5106;50.926;7.080;2023-12-04T02:08:56;7.77;;;6.20;;
10132;SDS011;5106;50.926;7.080;2023-12-04T02:11:22;9.23;;;6.17;;
10132;SDS011;5106;50.926;7.080;2023-12-04T02:13:48;10.17;;;6.83;;
10132;SDS011;5106;50.926;7.080;2023-12-04T02:16:14;10.07;;;6.40;;
10132;SDS011;5106;50.926;7.080;2023-12-04T02:18:41;8.97;;;6.50;;
10132;SDS011;5106;50.926;7.080;2023-12-04T02:21:08;9.10;;;6.53;;
10132;SDS011;5106;50.926;7.080;2023-12-04T02:23:33;8.70;;;6.57;;
10132;SDS011;5106;50.926;7.080;2023-12-04T02:25:59;8.77;;;6.57;;
10132;SDS011;5106;50.926;7.080;2023-12-04T02:28:30;8.20;;;6.53;;
10132;SDS011;5106;50.926;7.080;2023-12-04T02:30:58;9.80;;;6.70;;
10132;SDS011;5106;50.926;7.080;2023-12-04T02:33:26;9.87;;;6.70;;
10132;SDS011;5106;50.926;7.080;2023-12-04T02:35:53;9.53;;;6.80;;
10132;SDS011;5106;50.926;7.080;2023-12-04T02:38:22;10.27;;;7.57;;
10132;SDS011;5106;50.926;7.080;2023-12-04T02:40:48;9.23;;;6.70;;
10132;SDS011;5106;50.926;7.080;2023-12-04T02:43:14;8.53;;;6.27;;
10132;SDS011;5106;50.926;7.080;2023-12-04T02:45:39;9.97;;;6.80;;
10132;SDS011;5106;50.926;7.080;2023-12-04T02:48:05;8.70;;;6.50;;
10132;SDS011;5106;50.926;7.080;2023-12-04T02:50:31;9.70;;;7.00;;
10132;SDS011;5106;50.926;7.080;2023-12-04T02:52:56;8.97;;;6.43;;
10132;SDS011;5106;50.926;7.080;2023-12-04T02:55:22;9.03;;;6.90;;
10132;SDS011;5106;50.926;7.080;2023-12-04T02:57:47;9.80;;;6.80;;
10132;SDS011;5106;50.926;7.080;2023-12-04T03:00:13;8.40;;;6.43;;
10132;SDS011;5106;50.926;7.080;2023-12-04T03:02:39;9.90;;;6.80;;
10132;SDS011;5106;50.926;7.080;2023-12-04T03:05:04;9.27;;;6.53;;
10132;SDS011;5106;50.926;7.080;2023-12-04T03:07:30;8.97;;;6.60;;
10132;SDS011;5106;50.926;7.080;2023-12-04T03:09:56;8.73;;;6.57;;
10132;SDS011;5106;50.926;7.080;2023-12-04T03:12:21;8.80;;;6.10;;
10132;SDS011;5106;50.926;7.080;2023-12-04T03:14:47;9.63;;;6.70;;
10132;SDS011;5106;50.926;7.080;2023-12-04T03:17:12;9.30;;;6.63;;
10132;SDS011;5106;50.926;7.080;2023-12-04T03:19:38;8.87;;;6.60;;
10132;SDS011;5106;50.926;7.080;2023-12-04T03:22:03;9.93;;;6.77;;
10132;SDS011;5106;50.926;7.080;2023-12-04T03:24:29;9.37;;;6.60;;
10132;SDS011;5106;50.926;7.080;2023-12-04T03:26:55;8.50;;;6.10;;
10132;SDS011;5106;50.926;7.080;2023-12-04T03:29:20;9.40;;;6.67;;
10132;SDS011;5106;50.926;7.080;2023-12-04T03:31:46;8.97;;;6.10;;
10132;SDS011;5106;50.926;7.080;2023-12-04T03:34:11;8.57;;;6.27;;
10132;SDS011;5106;50.926;7.080;2023-12-04T03:36:37;7.73;;;5.80;;
10132;SDS011;5106;50.926;7.080;2023-12-04T03:39:02;8.60;;;6.10;;
10132;SDS011;5106;50.926;7.080;2023-12-04T03:41:29;8.23;;;6.17;;
10132;SDS011;5106;50.926;7.080;2023-12-04T03:43:54;8.97;;;6.50;;
10132;SDS011;5106;50.926;7.080;2023-12-04T03:46:20;8.23;;;6.23;;
10132;SDS011;5106;50.926;7.080;2023-12-04T03:48:45;8.40;;;6.13;;
10132;SDS011;5106;50.926;7.080;2023-12-04T03:51:11;8.53;;;6.03;;
10132;SDS011;5106;50.926;7.080;2023-12-04T03:53:55;10.03;;;7.00;;
10132;SDS011;5106;50.926;7.080;2023-12-04T03:56:21;8.77;;;6.40;;
10132;SDS011;5106;50.926;7.080;2023-12-04T03:58:46;9.27;;;6.70;;
10132;SDS011;5106;50.926;7.080;2023-12-04T04:01:12;9.00;;;7.00;;
10132;SDS011;5106;50.926;7.080;2023-12-04T04:03:37;8.73;;;6.47;;
10132;SDS011;5106;50.926;7.080;2023-12-04T04:06:03;8.80;;;6.40;;
10132;SDS011;5106;50.926;7.080;2023-12-04T04:08:29;8.83;;;6.23;;
10132;SDS011;5106;50.926;7.080;2023-12-04T04:10:54;10.63;;;6.60;;
10132;SDS011;5106;50.926;7.080;2023-12-04T04:13:20;9.13;;;6.57;;
10132;SDS011;5106;50.926;7.080;2023-12-04T04:15:46;9.17;;;6.70;;
10132;SDS011;5106;50.926;7.080;2023-12-04T04:18:11;9.83;;;6.97;;
10132;SDS011;5106;50.926;7.080;2023-12-04T04:20:37;9.50;;;6.97;;
10132;SDS011;5106;50.926;7.080;2023-12-04T04:23:02;9.43;;;6.77;;
10132;SDS011;5106;50.926;7.080;2023-12-04T04:25:28;10.47;;;6.83;;
10132;SDS011;5106;50.926;7.080;2023-12-04T04:27:53;8.13;;;6.40;;
10132;SDS011;5106;50.926;7.080;2023-12-04T04:30:19;9.63;;;6.70;;
10132;SDS011;5106;50.926;7.080;2023-12-04T04:32:44;9.77;;;6.90;;
10132;SDS011;5106;50.926;7.080;2023-12-04T04:35:10;10.93;;;7.57;;
10132;SDS011;5106;50.926;7.080;2023-12-04T04:37:36;9.07;;;6.93;;
10132;SDS011;5106;50.926;7.080;2023-12-04T04:40:01;9.47;;;6.83;;
10132;SDS011;5106;50.926;7.080;2023-12-04T04:42:28;8.80;;;6.87;;
10132;SDS011;5106;50.926;7.080;2023-12-04T04:44:53;10.40;;;7.13;;
10132;SDS011;5106;50.926;7.080;2023-12-04T04:47:19;9.10;;;7.00;;
10132;SDS011;5106;50.926;7.080;2023-12-04T04:49:44;8.47;;;6.67;;
10132;SDS011;5106;50.926;7.080;2023-12-04T04:52:10;9.27;;;6.77;;
10132;SDS011;5106;50.926;7.080;2023-12-04T04:54:35;9.00;;;6.77;;
10132;SDS011;5106;50.926;7.080;2023-12-04T04:57:01;10.63;;;7.47;;
10132;SDS011;5106;50.926;7.080;2023-12-04T04:59:26;12.47;;;7.73;;
10132;SDS011;5106;50.926;7.080;2023-12-04T05:01:55;9.97;;;7.10;;
10132;SDS011;5106;50.926;7.080;2023-12-04T05:04:21;10.53;;;6.97;;
10132;SDS011;5106;50.926;7.080;2023-12-04T05:06:46;9.50;;;7.23;;
10132;SDS011;5106;50.926;7.080;2023-12-04T05:09:12;10.93;;;7.50;;
10132;SDS011;5106;50.926;7.080;2023-12-04T05:11:37;10.67;;;7.50;;
10132;SDS011;5106;50.926;7.080;2023-12-04T05:14:03;11.87;;;7.80;;
10132;SDS011;5106;50.926;7.080;2023-12-04T05:16:28;10.97;;;7.93;;
10132;SDS011;5106;50.926;7.080;2023-12-04T05:18:54;11.50;;;7.97;;
10132;SDS011;5106;50.926;7.080;2023-12-04T05:21:19;10.60;;;7.70;;
10132;SDS011;5106;50.926;7.080;2023-12-04T05:23:45;10.63;;;7.50;;
10132;SDS011;5106;50.926;7.080;2023-12-04T05:26:11;11.87;;;8.03;;
10132;SDS011;5106;50.926;7.080;2023-12-04T05:28:36;11.37;;;8.10;;
10132;SDS011;5106;50.926;7.080;2023-12-04T05:31:02;11.53;;;8.03;;
10132;SDS011;5106;50.926;7.080;2023-12-04T05:33:28;10.33;;;7.43;;
10132;SDS011;5106;50.926;7.080;2023-12-04T05:35:53;12.13;;;8.73;;
10132;SDS011;5106;50.926;7.080;2023-12-04T05:38:19;10.67;;;8.10;;
10132;SDS011;5106;50.926;7.080;2023-12-04T05:40:45;10.50;;;7.60;;
10132;SDS011;5106;50.926;7.080;2023-12-04T05:43:10;12.80;;;8.53;;
10132;SDS011;5106;50.926;7.080;2023-12-04T05:45:36;12.60;;;8.37;;
10132;SDS011;5106;50.926;7.080;2023-12-04T05:48:03;11.50;;;8.20;;
10132;SDS011;5106;50.926;7.080;2023-12-04T05:50:29;12.30;;;8.47;;
10132;SDS011;5106;50.926;7.080;2023-12-04T05:52:55;11.10;;;7.67;;
10132;SDS011;5106;50.926;7.080;2023-12-04T05:55:20;10.70;;;7.87;;
10132;SDS011;5106;50.926;7.080;2023-12-04T05:57:46;11.33;;;7.87;;
10132;SDS011;5106;50.926;7.080;2023-12-04T06:00:12;11.63;;;8.23;;
10132;SDS011;5106;50.926;7.080;2023-12-04T06:02:38;12.90;;;9.03;;
10132;SDS011;5106;50.926;7.080;2023-12-04T06:05:05;11.10;;;7.80;;
10132;SDS011;5106;50.926;7.080;2023-12-04T06:07:31;12.27;;;9.00;;
10132;SDS011;5106;50.926;7.080;2023-12-04T06:09:56;11.23;;;8.27;;
10132;SDS011;5106;50.926;7.080;2023-12-04T06:12:22;13.13;;;8.97;;
10132;SDS011;5106;50.926;7.080;2023-12-04T06:14:47;12.53;;;8.53;;
10132;SDS011;5106;50.926;7.080;2023-12-04T06:17:13;11.73;;;8.63;;
10132;SDS011;5106;50.926;7.080;2023-12-04T06:19:39;12.37;;;9.03;;
10132;SDS011;5106;50.926;7.080;2023-12-04T06:22:05;10.93;;;8.03;;
10132;SDS011;5106;50.926;7.080;2023-12-04T06:24:30;12.73;;;8.57;;
10132;SDS011;5106;50.926;7.080;2023-12-04T06:26:56;11.03;;;8.07;;
10132;SDS011;5106;50.926;7.080;2023-12-04T06:29:23;11.53;;;8.20;;
10132;SDS011;5106;50.926;7.080;2023-12-04T06:31:49;11.47;;;8.37;;
10132;SDS011;5106;50.926;7.080;2023-12-04T06:34:14;11.83;;;8.40;;
10132;SDS011;5106;50.926;7.080;2023-12-04T06:36:40;11.93;;;8.53;;
10132;SDS011;5106;50.926;7.080;2023-12-04T06:39:10;11.33;;;8.30;;
10132;SDS011;5106;50.926;7.080;2023-12-04T06:41:40;10.43;;;8.03;;
10132;SDS011;5106;50.926;7.080;2023-12-04T06:44:06;12.37;;;7.93;;
10132;SDS011;5106;50.926;7.080;2023-12-04T06:46:33;11.37;;;7.83;;
10132;SDS011;5106;50.926;7.080;2023-12-04T06:49:06;10.30;;;8.10;;
10132;SDS011;5106;50.926;7.080;2023-12-04T06:51:34;11.33;;;7.97;;
10132;SDS011;5106;50.926;7.080;2023-12-04T06:53:59;9.73;;;7.37;;
10132;SDS011;5106;50.926;7.080;2023-12-04T06:56:25;10.53;;;7.93;;
10132;SDS011;5106;50.926;7.080;2023-12-04T06:58:51;12.40;;;8.10;;
10132;SDS011;5106;50.926;7.080;2023-12-04T07:01:16;12.97;;;8.07;;
10132;SDS011;5106;50.926;7.080;2023-12-04T07:03:42;10.10;;;7.53;;
10132;SDS011;5106;50.926;7.080;2023-12-04T07:06:08;10.90;;;7.30;;
10132;SDS011;5106;50.926;7.080;2023-12-04T07:08:33;11.13;;;7.83;;
10132;SDS011;5106;50.926;7.080;2023-12-04T07:10:59;9.63;;;7.10;;
10132;SDS011;5106;50.926;7.080;2023-12-04T07:13:24;9.47;;;7.00;;
10132;SDS011;5106;50.926;7.080;2023-12-04T07:15:50;9.50;;;6.97;;
10132;SDS011;5106;50.926;7.080;2023-12-04T07:18:16;9.50;;;6.57;;
10132;SDS011;5106;50.926;7.080;2023-12-04T07:20:42;10.13;;;6.80;;
10132;SDS011;5106;50.926;7.080;2023-12-04T07:23:07;8.73;;;6.73;;
10132;SDS011;5106;50.926;7.080;2023-12-04T07:25:33;9.13;;;6.33;;
10132;SDS011;5106;50.926;7.080;2023-12-04T07:27:58;8.53;;;6.37;;
10132;SDS011;5106;50.926;7.080;2023-12-04T07:30:24;8.47;;;6.57;;
10132;SDS011;5106;50.926;7.080;2023-12-04T07:32:50;8.53;;;6.33;;
10132;SDS011;5106;50.926;7.080;2023-12-04T07:35:16;7.93;;;5.83;;
10132;SDS011;5106;50.926;7.080;2023-12-04T07:37:43;8.20;;;5.70;;
10132;SDS011;5106;50.926;7.080;2023-12-04T07:40:09;7.50;;;5.97;;
10132;SDS011;5106;50.926;7.080;2023-12-04T07:42:35;8.03;;;6.07;;
10132;SDS011;5106;50.926;7.080;2023-12-04T07:45:01;7.97;;;6.07;;
10132;SDS011;5106;50.926;7.080;2023-12-04T07:47:27;8.87;;;6.03;;
10132;SDS011;5106;50.926;7.080;2023-12-04T07:49:53;8.40;;;6.30;;
10132;SDS011;5106;50.926;7.080;2023-12-04T07:52:19;9.17;;;6.20;;
10132;SDS011;5106;50.926;7.080;2023-12-04T07:54:44;7.57;;;5.67;;
10132;SDS011;5106;50.926;7.080;2023-12-04T07:57:10;7.73;;;5.80;;
10132;SDS011;5106;50.926;7.080;2023-12-04T07:59:35;8.17;;;5.60;;
10132;SDS011;5106;50.926;7.080;2023-12-04T08:02:01;9.40;;;6.13;;
10132;SDS011;5106;50.926;7.080;2023-12-04T08:04:26;8.30;;;6.30;;
10132;SDS011;5106;50.926;7.080;2023-12-04T08:06:52;7.93;;;5.77;;
10132;SDS011;5106;50.926;7.080;2023-12-04T08:09:18;9.97;;;5.87;;
10132;SDS011;5106;50.926;7.080;2023-12-04T08:11:43;8.50;;;5.77;;
10132;SDS011;5106;50.926;7.080;2023-12-04T08:14:10;8.53;;;6.00;;
10132;SDS011;5106;50.926;7.080;2023-12-04T08:16:35;7.13;;;5.37;;
10132;SDS011;5106;50.926;7.080;2023-12-04T08:19:01;8.03;;;5.90;;
10132;SDS011;5106;50.926;7.080;2023-12-04T08:21:27;8.00;;;6.00;;
10132;SDS011;5106;50.926;7.080;2023-12-04T08:23:52;8.20;;;6.00;;
10132;SDS011;5106;50.926;7.080;2023-12-04T08:26:24;7.40;;;5.73;;
10132;SDS011;5106;50.926;7.080;2023-12-04T08:28:50;8.27;;;5.83;;
10132;SDS011;5106;50.926;7.080;2023-12-04T08:31:16;9.00;;;6.20;;
10132;SDS011;5106;50.926;7.080;2023-12-04T08:33:42;7.17;;;5.53;;
10132;SDS011;5106;50.926;7.080;2023-12-04T08:36:09;8.57;;;6.10;;
10132;SDS011;5106;50.926;7.080;2023-12-04T08:38:35;7.33;;;5.57;;
10132;SDS011;5106;50.926;7.080;2023-12-04T08:41:01;9.13;;;6.07;;
10132;SDS011;5106;50.926;7.080;2023-12-04T08:43:27;7.93;;;5.93;;
10132;SDS011;5106;50.926;7.080;2023-12-04T08:45:53;8.70;;;6.07;;
10132;SDS011;5106;50.926;7.080;2023-12-04T08:48:19;7.57;;;5.70;;
10132;SDS011;5106;50.926;7.080;2023-12-04T08:50:45;10.17;;;5.60;;
10132;SDS011;5106;50.926;7.080;2023-12-04T08:53:10;6.93;;;5.53;;
10132;SDS011;5106;50.926;7.080;2023-12-04T08:55:37;7.00;;;5.47;;
10132;SDS011;5106;50.926;7.080;2023-12-04T08:58:02;6.37;;;5.13;;
10132;SDS011;5106;50.926;7.080;2023-12-04T09:00:34;7.17;;;5.33;;
10132;SDS011;5106;50.926;7.080;2023-12-04T09:03:02;7.20;;;5.70;;
10132;SDS011;5106;50.926;7.080;2023-12-04T09:05:28;7.87;;;5.13;;
10132;SDS011;5106;50.926;7.080;2023-12-04T09:07:54;7.60;;;5.10;;
10132;SDS011;5106;50.926;7.080;2023-12-04T09:10:19;7.30;;;5.20;;
10132;SDS011;5106;50.926;7.080;2023-12-04T09:12:45;7.33;;;5.10;;
10132;SDS011;5106;50.926;7.080;2023-12-04T09:15:10;7.80;;;5.73;;
10132;SDS011;5106;50.926;7.080;2023-12-04T09:17:36;7.53;;;5.77;;
10132;SDS011;5106;50.926;7.080;2023-12-04T09:20:02;7.13;;;5.20;;
10132;SDS011;5106;50.926;7.080;2023-12-04T09:22:30;7.03;;;5.57;;
10132;SDS011;5106;50.926;7.080;2023-12-04T09:24:56;7.87;;;5.60;;
10132;SDS011;5106;50.926;7.080;2023-12-04T09:27:22;8.47;;;5.80;;
10132;SDS011;5106;50.926;7.080;2023-12-04T09:29:47;7.03;;;5.17;;
10132;SDS011;5106;50.926;7.080;2023-12-04T09:32:13;7.40;;;5.23;;
10132;SDS011;5106;50.926;7.080;2023-12-04T09:34:39;10.80;;;6.13;;
10132;SDS011;5106;50.926;7.080;2023-12-04T09:37:04;7.70;;;5.57;;
10132;SDS011;5106;50.926;7.080;2023-12-04T09:39:30;6.50;;;5.20;;
10132;SDS011;5106;50.926;7.080;2023-12-04T09:41:55;10.27;;;5.23;;
10132;SDS011;5106;50.926;7.080;2023-12-04T09:44:23;6.97;;;5.27;;
10132;SDS011;5106;50.926;7.080;2023-12-04T09:46:51;6.33;;;5.00;;
10132;SDS011;5106;50.926;7.080;2023-12-04T09:49:17;9.17;;;5.53;;
10132;SDS011;5106;50.926;7.080;2023-12-04T09:51:43;7.13;;;5.27;;
10132;SDS011;5106;50.926;7.080;2023-12-04T09:54:09;7.67;;;5.33;;
10132;SDS011;5106;50.926;7.080;2023-12-04T09:56:36;6.47;;;4.90;;
10132;SDS011;5106;50.926;7.080;2023-12-04T09:59:02;10.83;;;5.77;;
10132;SDS011;5106;50.926;7.080;2023-12-04T10:01:31;8.00;;;5.87;;
10132;SDS011;5106;50.926;7.080;2023-12-04T10:03:58;7.67;;;5.43;;
10132;SDS011;5106;50.926;7.080;2023-12-04T10:06:27;8.20;;;5.33;;
10132;SDS011;5106;50.926;7.080;2023-12-04T10:08:54;8.03;;;5.60;;
10132;SDS011;5106;50.926;7.080;2023-12-04T10:11:22;8.80;;;5.60;;
10132;SDS011;5106;50.926;7.080;2023-12-04T10:13:48;8.87;;;5.77;;
10132;SDS011;5106;50.926;7.080;2023-12-04T10:16:13;6.87;;;5.13;;
10132;SDS011;5106;50.926;7.080;2023-12-04T10:18:39;8.43;;;5.40;;
10132;SDS011;5106;50.926;7.080;2023-12-04T10:21:05;8.27;;;5.73;;
10132;SDS011;5106;50.926;7.080;2023-12-04T10:23:42;10.03;;;5.73;;
10132;SDS011;5106;50.926;7.080;2023-12-04T10:26:09;7.60;;;5.30;;
10132;SDS011;5106;50.926;7.080;2023-12-04T10:28:40;9.50;;;5.53;;
10132;SDS011;5106;50.926;7.080;2023-12-04T10:31:23;6.90;;;5.13;;
10132;SDS011;5106;50.926;7.080;2023-12-04T10:33:49;7.30;;;5.40;;
10132;SDS011;5106;50.926;7.080;2023-12-04T10:36:20;8.60;;;5.30;;
10132;SDS011;5106;50.926;7.080;2023-12-04T10:38:46;6.47;;;5.03;;
10132;SDS011;5106;50.926;7.080;2023-12-04T10:41:12;7.57;;;5.30;;
10132;SDS011;5106;50.926;7.080;2023-12-04T10:43:46;8.00;;;5.37;;
10132;SDS011;5106;50.926;7.080;2023-12-04T10:46:13;8.37;;;5.60;;
10132;SDS011;5106;50.926;7.080;2023-12-04T10:48:41;8.00;;;5.70;;
10132;SDS011;5106;50.926;7.080;2023-12-04T10:51:12;8.90;;;6.10;;
10132;SDS011;5106;50.926;7.080;2023-12-04T10:53:38;9.83;;;6.20;;
10132;SDS011;5106;50.926;7.080;2023-12-04T10:56:09;7.30;;;5.63;;
10132;SDS011;5106;50.926;7.080;2023-12-04T10:58:40;6.97;;;5.40;;
10132;SDS011;5106;50.926;7.080;2023-12-04T11:01:06;7.43;;;5.50;;
10132;SDS011;5106;50.926;7.080;2023-12-04T11:03:47;10.10;;;5.80;;
10132;SDS011;5106;50.926;7.080;2023-12-04T11:06:14;7.10;;;5.13;;
10132;SDS011;5106;50.926;7.080;2023-12-04T11:08:42;8.20;;;5.23;;
10132;SDS011;5106;50.926;7.080;2023-12-04T11:11:09;7.47;;;5.57;;
10132;SDS011;5106;50.926;7.080;2023-12-04T11:13:43;11.53;;;5.53;;
10132;SDS011;5106;50.926;7.080;2023-12-04T11:16:22;7.60;;;5.87;;
10132;SDS011;5106;50.926;7.080;2023-12-04T11:19:14;6.50;;;5.47;;
10132;SDS011;5106;50.926;7.080;2023-12-04T11:22:00;7.87;;;5.97;;
10132;SDS011;5106;50.926;7.080;2023-12-04T11:24:27;8.60;;;6.40;;
10132;SDS011;5106;50.926;7.080;2023-12-04T11:26:52;8.73;;;5.73;;
10132;SDS011;5106;50.926;7.080;2023-12-04T11:29:19;9.77;;;6.00;;
10132;SDS011;5106;50.926;7.080;2023-12-04T11:31:46;7.93;;;5.60;;
10132;SDS011;5106;50.926;7.080;2023-12-04T11:34:12;11.40;;;6.37;;
10132;SDS011;5106;50.926;7.080;2023-12-04T11:36:38;9.07;;;5.90;;
10132;SDS011;5106;50.926;7.080;2023-12-04T11:39:08;9.57;;;6.10;;
10132;SDS011;5106;50.926;7.080;2023-12-04T11:41:37;8.27;;;6.20;;
10132;SDS011;5106;50.926;7.080;2023-12-04T11:44:03;7.93;;;5.73;;
10132;SDS011;5106;50.926;7.080;2023-12-04T11:46:36;8.23;;;6.40;;
10132;SDS011;5106;50.926;7.080;2023-12-04T11:49:26;8.60;;;5.70;;
10132;SDS011;5106;50.926;7.080;2023-12-04T11:51:53;8.50;;;5.70;;
10132;SDS011;5106;50.926;7.080;2023-12-04T11:54:19;9.80;;;6.10;;
10132;SDS011;5106;50.926;7.080;2023-12-04T11:57:00;8.90;;;6.20;;
10132;SDS011;5106;50.926;7.080;2023-12-04T11:59:46;12.77;;;6.63;;
10132;SDS011;5106;50.926;7.080;2023-12-04T12:02:11;9.67;;;6.70;;
10132;SDS011;5106;50.926;7.080;2023-12-04T12:04:37;7.77;;;5.77;;
10132;SDS011;5106;50.926;7.080;2023-12-04T12:07:04;9.57;;;6.00;;
10132;SDS011;5106;50.926;7.080;2023-12-04T12:09:30;12.00;;;6.33;;
10132;SDS011;5106;50.926;7.080;2023-12-04T12:12:03;9.87;;;6.57;;
10132;SDS011;5106;50.926;7.080;2023-12-04T12:14:29;8.60;;;6.87;;
10132;SDS011;5106;50.926;7.080;2023-12-04T12:16:55;8.40;;;6.77;;
10132;SDS011;5106;50.926;7.080;2023-12-04T12:19:23;9.93;;;6.80;;
10132;SDS011;5106;50.926;7.080;2023-12-04T12:21:49;11.30;;;6.70;;
10132;SDS011;5106;50.926;7.080;2023-12-04T12:24:16;10.73;;;7.47;;
10132;SDS011;5106;50.926;7.080;2023-12-04T12:26:42;8.97;;;6.33;;
10132;SDS011;5106;50.926;7.080;2023-12-04T12:29:08;11.67;;;6.77;;
10132;SDS011;5106;50.926;7.080;2023-12-04T12:31:34;11.50;;;7.03;;
10132;SDS011;5106;50.926;7.080;2023-12-04T12:34:00;10.03;;;6.67;;
10132;SDS011;5106;50.926;7.080;2023-12-04T12:36:26;9.97;;;6.97;;
10132;SDS011;5106;50.926;7.080;2023-12-04T12:38:52;10.47;;;6.83;;
10132;SDS011;5106;50.926;7.080;2023-12-04T12:41:18;10.90;;;6.70;;
10132;SDS011;5106;50.926;7.080;2023-12-04T12:43:45;9.30;;;6.33;;
10132;SDS011;5106;50.926;7.080;2023-12-04T12:46:11;10.80;;;6.67;;
10132;SDS011;5106;50.926;7.080;2023-12-04T12:48:36;11.83;;;6.80;;
10132;SDS011;5106;50.926;7.080;2023-12-04T12:51:02;8.70;;;6.03;;
10132;SDS011;5106;50.926;7.080;2023-12-04T12:53:28;11.17;;;7.00;;
10132;SDS011;5106;50.926;7.080;2023-12-04T12:55:56;9.93;;;6.93;;
10132;SDS011;5106;50.926;7.080;2023-12-04T12:58:23;10.50;;;6.57;;
10132;SDS011;5106;50.926;7.080;2023-12-04T13:00:50;10.23;;;6.60;;
10132;SDS011;5106;50.926;7.080;2023-12-04T13:03:16;8.90;;;6.80;;
10132;SDS011;5106;50.926;7.080;2023-12-04T13:05:42;10.23;;;6.80;;
10132;SDS011;5106;50.926;7.080;2023-12-04T13:08:07;9.80;;;6.57;;
10132;SDS011;5106;50.926;7.080;2023-12-04T13:10:33;10.83;;;7.07;;
10132;SDS011;5106;50.926;7.080;2023-12-04T13:12:58;10.73;;;6.53;;
10132;SDS011;5106;50.926;7.080;2023-12-04T13:15:25;11.83;;;7.07;;
10132;SDS011;5106;50.926;7.080;2023-12-04T13:17:51;10.37;;;6.47;;
10132;SDS011;5106;50.926;7.080;2023-12-04T13:20:17;9.00;;;6.20;;
10132;SDS011;5106;50.926;7.080;2023-12-04T13:22:42;11.10;;;7.23;;
10132;SDS011;5106;50.926;7.080;2023-12-04T13:25:08;9.00;;;6.53;;
10132;SDS011;5106;50.926;7.080;2023-12-04T13:27:38;9.03;;;6.33;;
10132;SDS011;5106;50.926;7.080;2023-12-04T13:30:07;9.40;;;6.53;;
10132;SDS011;5106;50.926;7.080;2023-12-04T13:32:39;23.97;;;7.57;;
10132;SDS011;5106;50.926;7.080;2023-12-04T13:35:05;11.83;;;5.73;;
10132;SDS011;5106;50.926;7.080;2023-12-04T13:37:36;10.30;;;6.37;;
10132;SDS011;5106;50.926;7.080;2023-12-04T13:40:04;12.07;;;6.03;;
10132;SDS011;5106;50.926;7.080;2023-12-04T13:42:34;7.57;;;5.80;;
10132;SDS011;5106;50.926;7.080;2023-12-04T13:45:19;10.03;;;5.73;;
10132;SDS011;5106;50.926;7.080;2023-12-04T13:47:48;6.57;;;5.20;;
10132;SDS011;5106;50.926;7.080;2023-12-04T13:50:14;6.97;;;5.27;;
10132;SDS011;5106;50.926;7.080;2023-12-04T13:52:40;10.33;;;6.10;;
10132;SDS011;5106;50.926;7.080;2023-12-04T13:55:08;7.77;;;5.57;;
10132;SDS011;5106;50.926;7.080;2023-12-04T13:57:45;8.03;;;5.77;;
10132;SDS011;5106;50.926;7.080;2023-12-04T14:00:40;7.03;;;5.23;;
10132;SDS011;5106;50.926;7.080;2023-12-04T14:03:08;8.23;;;5.67;;
10132;SDS011;5106;50.926;7.080;2023-12-04T14:05:34;7.37;;;5.20;;
10132;SDS011;5106;50.926;7.080;2023-12-04T14:08:00;7.07;;;5.07;;
10132;SDS011;5106;50.926;7.080;2023-12-04T14:10:26;7.77;;;5.43;;
10132;SDS011;5106;50.926;7.080;2023-12-04T14:12:52;7.47;;;5.40;;
10132;SDS011;5106;50.926;7.080;2023-12-04T14:15:18;6.37;;;4.87;;
10132;SDS011;5106;50.926;7.080;2023-12-04T14:17:45;7.27;;;4.97;;
10132;SDS011;5106;50.926;7.080;2023-12-04T14:20:11;6.80;;;4.83;;
10132;SDS011;5106;50.926;7.080;2023-12-04T14:22:41;7.23;;;5.00;;
10132;SDS011;5106;50.926;7.080;2023-12-04T14:25:08;7.20;;;4.90;;
10132;SDS011;5106;50.926;7.080;2023-12-04T14:27:34;6.23;;;4.80;;
10132;SDS011;5106;50.926;7.080;2023-12-04T14:30:00;5.43;;;4.27;;
10132;SDS011;5106;50.926;7.080;2023-12-04T14:32:27;7.23;;;4.60;;
10132;SDS011;5106;50.926;7.080;2023-12-04T14:34:52;7.47;;;4.30;;
10132;SDS011;5106;50.926;7.080;2023-12-04T14:37:18;6.93;;;4.40;;
10132;SDS011;5106;50.926;7.080;2023-12-04T14:39:43;5.40;;;4.37;;
10132;SDS011;5106;50.926;7.080;2023-12-04T14:42:10;5.17;;;4.33;;
10132;SDS011;5106;50.926;7.080;2023-12-04T14:44:36;7.87;;;5.00;;
10132;SDS011;5106;50.926;7.080;2023-12-04T14:47:01;5.90;;;4.23;;
10132;SDS011;5106;50.926;7.080;2023-12-04T14:49:29;5.50;;;4.30;;
10132;SDS011;5106;50.926;7.080;2023-12-04T14:51:55;4.63;;;4.07;;
10132;SDS011;5106;50.926;7.080;2023-12-04T14:54:22;7.03;;;4.30;;